Time;durP1;ratioP1;P1;durP2;ratioP2;P2;SDS_P1;SDS_P2;PMS_P1;PMS_P2;Temp;Humidity;BMP_temperature;BMP_pressure;BME280_temperature;BME280_humidity;BME280_pressure;Samples;Min_cycle;Max_cycle;Signal;HPM_P1;HPM_P2
2022/07/14 00:01:39;;;;;;;2.98;2.55;;;;;;;19.39;60.35;100063.22;2263288;77;22238;-74
2022/07/14 00:04:40;;;;;;;7.37;2.72;;;;;;;19.43;59.72;100069.81;2255115;78;21063;-73
2022/07/14 00:07:42;;;;;;;3.12;2.37;;;;;;;19.46;59.91;100065.31;2259004;78;22396;-73
2022/07/14 00:10:46;;;;;;;5.20;2.70;;;;;;;19.48;60.34;100065.89;2259417;77;20982;-73
2022/07/14 00:13:47;;;;;;;5.87;2.60;;;;;;;19.48;60.21;100057.82;2259337;78;21018;-73
2022/07/14 00:16:48;;;;;;;2.83;2.55;;;;;;;19.50;60.35;100055.73;2270840;78;21026;-74
2022/07/14 00:19:49;;;;;;;4.92;2.83;;;;;;;19.50;60.33;100059.77;2261800;78;21013;-74
2022/07/14 00:22:50;;;;;;;3.95;2.33;;;;;;;19.51;60.32;100064.09;2266681;78;21018;-74
2022/07/14 00:25:52;;;;;;;2.92;2.67;;;;;;;19.49;60.20;100061.64;2253387;78;22121;-74
2022/07/14 00:28:53;;;;;;;5.03;2.60;;;;;;;19.47;60.32;100061.03;2262229;77;20963;-74
2022/07/14 00:31:54;;;;;;;4.12;2.40;;;;;;;19.44;60.06;100065.53;2261632;78;20954;-74
2022/07/14 00:34:57;;;;;;;5.05;2.22;;;;;;;19.39;59.91;100061.88;2259968;78;20998;-74
2022/07/14 00:37:59;;;;;;;5.40;2.47;;;;;;;19.35;59.77;100061.52;2261933;78;21001;-74
2022/07/14 00:41:02;;;;;;;3.67;2.37;;;;;;;19.33;60.10;100061.44;2264886;78;20968;-74
2022/07/14 00:44:04;;;;;;;5.42;2.58;;;;;;;19.29;60.10;100065.11;2256496;78;21544;-73
2022/07/14 00:47:08;;;;;;;3.58;2.60;;;;;;;19.25;60.25;100058.52;2262937;78;21056;-73
2022/07/14 00:50:11;;;;;;;7.40;3.00;;;;;;;19.24;60.43;100059.58;2255585;78;21008;-73
2022/07/14 00:53:13;;;;;;;3.33;2.62;;;;;;;19.23;60.12;100061.45;2264160;77;21061;-74
2022/07/14 00:56:14;;;;;;;5.25;2.65;;;;;;;19.25;59.99;100053.14;2261889;78;20994;-73
2022/07/14 00:59:15;;;;;;;3.60;2.80;;;;;;;19.23;59.94;100053.38;2244836;78;21547;-74
2022/07/14 01:02:18;;;;;;;4.00;2.83;;;;;;;19.23;59.77;100052.04;2245093;78;21049;-74
2022/07/14 01:05:19;;;;;;;4.15;2.60;;;;;;;19.25;59.94;100051.27;2243155;79;21081;-75
2022/07/14 01:08:20;;;;;;;2.65;2.40;;;;;;;19.26;60.23;100048.89;2243806;78;20938;-73
2022/07/14 01:11:24;;;;;;;3.75;2.50;;;;;;;19.26;59.82;100049.42;2245793;78;22426;-73
2022/07/14 01:14:27;;;;;;;4.15;2.40;;;;;;;19.24;59.83;100048.29;2245138;78;20943;-73
2022/07/14 01:17:28;;;;;;;4.87;2.50;;;;;;;19.18;59.85;100053.23;2244933;78;21061;-73
2022/07/14 01:20:30;;;;;;;5.28;2.20;;;;;;;19.17;59.90;100054.78;2242795;79;21012;-73
2022/07/14 01:23:31;;;;;;;3.12;2.50;;;;;;;19.15;59.74;100060.41;2246287;78;21041;-73
2022/07/14 01:26:32;;;;;;;2.98;2.20;;;;;;;19.15;59.87;100063.63;2246929;78;21096;-73
2022/07/14 01:29:33;;;;;;;9.65;2.90;;;;;;;19.14;59.73;100058.73;2246230;78;21033;-75
2022/07/14 01:32:34;;;;;;;5.42;2.30;;;;;;;19.15;59.64;100062.28;2248340;78;21013;-74
2022/07/14 01:35:37;;;;;;;5.67;2.65;;;;;;;19.16;59.53;100055.31;2247336;78;21037;-73
2022/07/14 01:38:38;;;;;;;6.47;2.05;;;;;;;19.17;59.37;100056.12;2245632;78;21335;-73
2022/07/14 01:41:39;;;;;;;4.47;2.65;;;;;;;19.18;59.81;100052.41;2248251;78;21015;-73
2022/07/14 01:44:40;;;;;;;5.70;2.15;;;;;;;19.18;59.65;100059.14;2249107;78;21067;-73
2022/07/14 01:47:42;;;;;;;3.52;2.45;;;;;;;19.13;59.32;100057.64;2249434;78;21077;-74
2022/07/14 01:50:43;;;;;;;2.95;2.35;;;;;;;19.10;59.35;100053.53;2249943;78;20967;-74
2022/07/14 01:53:44;;;;;;;4.00;2.20;;;;;;;19.06;59.52;100060.91;2247775;78;20956;-73
2022/07/14 01:56:46;;;;;;;3.15;2.33;;;;;;;19.01;59.57;100061.07;2251060;77;21038;-74
2022/07/14 01:59:49;;;;;;;5.05;2.33;;;;;;;18.95;59.65;100055.74;2270664;77;21489;-73
2022/07/14 02:02:51;;;;;;;3.22;2.40;;;;;;;18.86;59.53;100055.74;2241880;77;21049;-74
2022/07/14 02:05:52;;;;;;;3.58;2.25;;;;;;;18.67;59.62;100057.55;2271689;77;21663;-73
2022/07/14 02:08:53;;;;;;;3.50;2.25;;;;;;;18.54;59.82;100050.44;2268079;77;21496;-73
2022/07/14 02:12:12;;;;;;;7.33;2.37;;;;;;;18.44;60.33;100056.83;2261715;78;21008;-73
2022/07/14 02:15:16;;;;;;;4.30;2.80;;;;;;;18.31;60.16;100069.86;2270830;77;21100;-73
2022/07/14 02:18:17;;;;;;;3.27;2.52;;;;;;;18.31;60.29;100076.58;2271699;78;20987;-74
2022/07/14 02:21:23;;;;;;;4.25;2.02;;;;;;;18.30;60.14;100081.13;2268876;77;21042;-74
2022/07/14 02:24:24;;;;;;;4.67;2.50;;;;;;;18.34;59.98;100087.70;2260293;77;20981;-73
2022/07/14 02:27:26;;;;;;;4.47;2.47;;;;;;;18.41;59.93;100082.78;2266501;77;21160;-73
2022/07/14 02:30:28;;;;;;;6.35;2.50;;;;;;;18.43;59.73;100088.24;2269789;77;21135;-73
2022/07/14 02:33:29;;;;;;;3.75;2.35;;;;;;;18.46;59.57;100081.61;2270303;77;20986;-73
2022/07/14 02:36:30;;;;;;;4.85;2.20;;;;;;;18.46;59.47;100082.95;2263732;77;21029;-74
2022/07/14 02:39:33;;;;;;;2.90;2.22;;;;;;;18.46;59.36;100080.27;2270905;78;21608;-73
2022/07/14 02:42:34;;;;;;;4.33;2.58;;;;;;;18.47;59.19;100087.28;2269018;77;21047;-73
2022/07/14 02:45:35;;;;;;;3.67;2.90;;;;;;;18.46;59.19;100084.30;2265298;78;21072;-73
2022/07/14 02:48:37;;;;;;;3.40;2.47;;;;;;;18.43;59.21;100094.14;2263883;77;21099;-73
2022/07/14 02:51:38;;;;;;;3.55;2.58;;;;;;;18.34;59.32;100097.63;2267975;78;21441;-73
2022/07/14 02:54:39;;;;;;;4.37;2.50;;;;;;;18.28;59.72;100107.89;2270910;77;21526;-73
2022/07/14 02:57:41;;;;;;;4.50;2.87;;;;;;;18.21;59.50;100113.30;2269051;77;20994;-74
2022/07/14 03:00:42;;;;;;;5.75;2.75;;;;;;;18.16;59.73;100109.12;2258017;78;21613;-73
2022/07/14 03:03:44;;;;;;;3.37;2.85;;;;;;;18.10;59.46;100109.95;2258522;78;21057;-75
2022/07/14 03:06:47;;;;;;;5.65;2.37;;;;;;;18.12;59.35;100101.17;2260094;78;21007;-74
2022/07/14 03:09:50;;;;;;;5.67;2.67;;;;;;;18.10;59.48;100100.06;2257341;77;21662;-73
2022/07/14 03:12:52;;;;;;;5.20;2.67;;;;;;;18.05;59.57;100109.80;2264257;78;21485;-73
2022/07/14 03:15:54;;;;;;;5.03;2.47;;;;;;;18.05;59.88;100118.68;2261437;78;21068;-73
2022/07/14 03:18:55;;;;;;;6.40;2.60;;;;;;;18.02;60.02;100116.92;2262134;78;21034;-73
2022/07/14 03:21:56;;;;;;;4.85;2.80;;;;;;;17.97;59.93;100109.53;2256764;78;21037;-73
2022/07/14 03:24:58;;;;;;;6.50;3.40;;;;;;;17.86;60.01;100113.72;2257712;78;21085;-73
2022/07/14 03:27:59;;;;;;;5.30;2.90;;;;;;;17.82;59.90;100105.80;2255913;78;21524;-73
2022/07/14 03:31:02;;;;;;;5.35;3.40;;;;;;;17.79;59.97;100108.89;2258466;78;21081;-75
2022/07/14 03:34:05;;;;;;;3.50;3.05;;;;;;;17.76;60.15;100120.02;2258778;78;21052;-73
2022/07/14 03:37:06;;;;;;;3.55;2.98;;;;;;;17.73;60.33;100137.89;2259323;78;21553;-74
2022/07/14 03:40:11;;;;;;;3.12;2.70;;;;;;;17.73;60.71;100137.89;2260667;78;20960;-73
2022/07/14 03:43:13;;;;;;;6.65;3.25;;;;;;;17.71;60.90;100138.64;2262947;78;21009;-74
2022/07/14 03:46:16;;;;;;;3.60;2.55;;;;;;;17.74;61.25;100138.22;2261382;78;21590;-72
2022/07/14 03:49:19;;;;;;;3.37;2.52;;;;;;;17.81;61.55;100145.73;2262968;78;21006;-72
2022/07/14 03:52:25;;;;;;;7.05;3.05;;;;;;;17.99;61.78;100149.57;2227271;78;21113;-73
2022/07/14 03:55:24;;;;;;;2.90;2.62;;;;;;;18.10;61.93;100152.42;2260687;78;21485;-72
2022/07/14 03:58:26;;;;;;;6.35;2.70;;;;;;;18.14;62.06;100161.68;2262679;78;21492;-73
2022/07/14 04:01:27;;;;;;;6.78;2.70;;;;;;;18.12;62.19;100163.75;2260212;78;21498;-72
2022/07/14 04:04:30;;;;;;;5.33;2.40;;;;;;;18.19;62.32;100167.77;2257798;78;21034;-73
2022/07/14 04:07:32;;;;;;;6.08;2.83;;;;;;;18.32;62.49;100164.97;2260846;78;20999;-73
2022/07/14 04:10:33;;;;;;;4.33;3.10;;;;;;;18.55;62.65;100174.33;2263160;78;21065;-72
2022/07/14 04:13:34;;;;;;;5.50;3.08;;;;;;;18.98;62.50;100187.07;2260667;78;20971;-72
2022/07/14 04:16:39;;;;;;;5.97;2.60;;;;;;;19.39;62.12;100203.13;2259568;78;21033;-72
2022/07/14 04:19:41;;;;;;;4.25;2.80;;;;;;;19.74;61.51;100212.83;2268207;78;21037;-73
2022/07/14 04:22:43;;;;;;;4.67;2.55;;;;;;;19.78;61.22;100207.81;2258936;78;21080;-73
2022/07/14 04:25:47;;;;;;;3.22;2.80;;;;;;;19.77;61.30;100212.91;2264703;78;21062;-73
2022/07/14 04:28:49;;;;;;;3.05;2.62;;;;;;;19.77;61.14;100222.33;2224595;78;21513;-73
2022/07/14 04:31:50;;;;;;;6.30;2.77;;;;;;;19.72;60.92;100224.86;2261420;77;21552;-73
2022/07/14 04:34:53;;;;;;;3.25;2.60;;;;;;;19.62;61.10;100225.34;2260300;78;21085;-73
2022/07/14 04:37:54;;;;;;;4.92;2.47;;;;;;;19.53;61.11;100219.42;2257447;78;21038;-73
2022/07/14 04:41:00;;;;;;;5.28;2.80;;;;;;;19.44;61.03;100227.50;2260869;77;20980;-72
2022/07/14 04:44:00;;;;;;;3.90;2.67;;;;;;;19.34;61.22;100235.23;2258590;78;21095;-73
2022/07/14 04:47:02;;;;;;;3.02;2.75;;;;;;;19.24;61.84;100227.16;2260786;78;20991;-74
2022/07/14 04:53:28;;;;;;;4.53;3.20;;;;;;;19.24;61.94;100227.16;2253094;78;21753;-73
2022/07/14 04:56:31;;;;;;;2.83;2.42;;;;;;;19.31;62.07;100228.96;2251847;78;21018;-73
2022/07/14 04:59:34;;;;;;;3.15;2.80;;;;;;;19.37;61.95;100224.88;2264843;78;21615;-73
2022/07/14 05:02:36;;;;;;;3.92;2.67;;;;;;;19.44;62.09;100226.97;2265430;77;20986;-73
2022/07/14 05:05:37;;;;;;;4.10;2.75;;;;;;;19.89;62.19;100232.64;2275755;77;21686;-72
2022/07/14 05:08:38;;;;;;;5.30;2.60;;;;;;;20.14;61.61;100233.36;2270452;77;21405;-73
2022/07/14 05:11:41;;;;;;;5.33;2.83;;;;;;;20.30;61.39;100225.68;2263778;77;20990;-72
2022/07/14 05:14:43;;;;;;;13.08;2.75;;;;;;;20.38;61.16;100219.98;2269446;78;21052;-72
2022/07/14 05:17:45;;;;;;;12.15;2.83;;;;;;;20.52;61.03;100221.96;2263948;77;21041;-72
2022/07/14 05:20:48;;;;;;;6.03;3.05;;;;;;;20.65;60.77;100225.84;2265314;78;21053;-73
2022/07/14 05:23:49;;;;;;;3.25;2.90;;;;;;;20.76;60.50;100225.59;2264161;77;20990;-73
2022/07/14 05:26:51;;;;;;;3.30;3.05;;;;;;;20.94;60.17;100224.67;2239816;78;21063;-73
2022/07/14 05:29:52;;;;;;;5.17;2.95;;;;;;;20.99;59.88;100227.50;2268605;78;21092;-73
2022/07/14 05:32:58;;;;;;;3.55;2.98;;;;;;;20.97;59.66;100229.06;2268865;77;22404;-72
2022/07/14 05:36:02;;;;;;;3.80;3.22;;;;;;;20.95;59.30;100249.26;2267032;78;21049;-74
2022/07/14 05:39:03;;;;;;;3.42;2.70;;;;;;;21.00;58.98;100248.83;2269242;77;21040;-74
2022/07/14 05:42:05;;;;;;;3.72;2.90;;;;;;;20.97;58.80;100257.92;2266073;77;21014;-74
2022/07/14 05:45:09;;;;;;;5.22;3.20;;;;;;;21.03;58.83;100253.78;2269311;77;21376;-73
2022/07/14 05:48:12;;;;;;;3.58;2.85;;;;;;;21.04;58.88;100260.00;2265133;77;21007;-74
2022/07/14 05:51:17;;;;;;;5.25;2.98;;;;;;;21.05;58.47;100250.30;2269135;77;21537;-74
2022/07/14 05:54:20;;;;;;;4.92;3.00;;;;;;;21.03;58.34;100251.59;2272667;77;21026;-74
2022/07/14 05:57:22;;;;;;;3.42;3.12;;;;;;;21.11;58.76;100258.00;2264153;77;21006;-74
2022/07/14 06:00:23;;;;;;;4.28;3.15;;;;;;;21.21;58.37;100265.53;2269201;78;21462;-76
2022/07/14 06:03:27;;;;;;;4.83;3.50;;;;;;;21.77;58.21;100265.50;2270711;77;21457;-76
2022/07/14 06:06:29;;;;;;;6.72;3.52;;;;;;;22.44;57.44;100274.47;2269892;77;21096;-76
2022/07/14 06:09:50;;;;;;;;;;;;;;;;;;;;;
2022/07/14 06:12:47;;;;;;;5.30;3.30;;;;;;;23.11;56.21;100272.41;2269182;77;20977;-79
2022/07/14 06:15:52;;;;;;;4.28;3.00;;;;;;;23.67;55.86;100271.91;2274162;77;21031;-81
2022/07/14 06:18:53;;;;;;;3.50;3.20;;;;;;;24.13;55.01;100255.45;2270166;77;21018;-83
2022/07/14 06:21:56;;;;;;;4.37;3.50;;;;;;;24.48;54.19;100267.28;2265039;78;20978;-83
2022/07/14 06:24:57;;;;;;;3.35;3.08;;;;;;;24.84;53.05;100258.14;2263948;77;21016;-84
2022/07/14 06:28:00;;;;;;;3.55;3.05;;;;;;;25.03;52.73;100258.04;2260894;78;21073;-81
2022/07/14 06:31:04;;;;;;;4.50;3.55;;;;;;;25.30;52.27;100268.58;2264234;77;21045;-81
2022/07/14 06:34:05;;;;;;;3.65;3.35;;;;;;;25.36;51.53;100269.70;2263386;77;20977;-81
2022/07/14 06:37:11;;;;;;;3.67;3.10;;;;;;;25.68;50.99;100266.12;2265224;77;21045;-83
2022/07/14 06:40:14;;;;;;;8.90;3.20;;;;;;;25.68;50.56;100260.69;2261553;77;20924;-81
2022/07/14 06:43:18;;;;;;;3.00;2.60;;;;;;;25.69;50.67;100256.33;2266541;78;21677;-82
2022/07/14 06:46:24;;;;;;;3.22;2.58;;;;;;;25.57;50.29;100249.48;2262489;77;21046;-81
2022/07/14 06:49:33;;;;;;;3.83;3.10;;;;;;;25.36;50.14;100249.88;2266599;77;21450;-83
2022/07/14 06:52:51;;;;;;;3.00;2.67;;;;;;;25.13;50.32;100250.50;2267494;77;21066;-82
2022/07/14 06:55:54;;;;;;;3.60;2.70;;;;;;;25.00;50.63;100249.57;2203876;78;21064;-84
2022/07/14 06:58:55;;;;;;;3.67;2.72;;;;;;;24.80;50.54;100244.79;2257636;77;21004;-84
2022/07/14 07:01:59;;;;;;;2.80;2.60;;;;;;;24.63;50.94;100253.59;2261102;78;21006;-80
2022/07/14 07:08:23;;;;;;;3.08;2.72;;;;;;;24.35;49.94;100252.73;2259185;78;21053;-80
2022/07/14 07:11:25;;;;;;;5.97;2.75;;;;;;;24.14;50.27;100255.21;2248725;78;21092;-79
2022/07/14 07:14:26;;;;;;;3.58;2.92;;;;;;;24.03;50.26;100247.22;2253759;78;20960;-83
2022/07/14 07:17:27;;;;;;;2.72;2.50;;;;;;;24.01;50.73;100247.45;2259175;77;20966;-76
2022/07/14 07:20:33;;;;;;;4.10;2.80;;;;;;;24.11;50.96;100240.81;2261824;78;20972;-80
2022/07/14 07:23:41;;;;;;;2.85;2.55;;;;;;;24.44;50.90;100239.56;2254222;78;20952;-76
2022/07/14 07:26:41;;;;;;;4.33;2.15;;;;;;;24.82;50.45;100236.67;2261258;78;21010;-77
2022/07/14 07:29:42;;;;;;;3.25;2.15;;;;;;;24.89;49.27;100234.28;2261634;78;21017;-78
2022/07/14 07:32:44;;;;;;;5.15;2.20;;;;;;;25.35;48.99;100235.48;2258097;78;20927;-77
2022/07/14 07:35:48;;;;;;;2.35;2.05;;;;;;;25.51;48.70;100228.27;2252545;78;21010;-77
2022/07/14 07:38:54;;;;;;;2.05;1.85;;;;;;;25.81;48.69;100219.42;2252209;78;20994;-80
2022/07/14 07:41:59;;;;;;;5.12;2.20;;;;;;;25.69;47.22;100218.29;2262109;78;21048;-78
2022/07/14 07:45:01;;;;;;;3.87;1.62;;;;;;;25.59;47.04;100220.94;2258333;78;21021;-77
2022/07/14 07:48:08;;;;;;;3.70;2.10;;;;;;;25.76;46.75;100220.75;2251697;78;21054;-78
2022/07/14 07:51:11;;;;;;;7.85;1.98;;;;;;;26.16;46.41;100216.61;2263162;78;20944;-78
2022/07/14 07:54:15;;;;;;;2.35;1.57;;;;;;;26.50;46.14;100214.25;2259855;78;21511;-78
2022/07/14 07:57:19;;;;;;;4.20;1.50;;;;;;;26.80;45.78;100218.88;2258809;78;21027;-79
2022/07/14 08:00:24;;;;;;;2.58;1.98;;;;;;;26.79;45.60;100221.34;2255054;78;21092;-78
2022/07/14 08:03:28;;;;;;;3.83;2.25;;;;;;;26.79;45.23;100219.98;2254489;78;21486;-78
2022/07/14 08:06:31;;;;;;;17.73;2.87;;;;;;;26.79;45.18;100230.87;2255604;78;21108;-78
2022/07/14 08:09:39;;;;;;;3.47;2.17;;;;;;;26.98;45.05;100228.42;2251460;78;20978;-77
2022/07/14 08:12:44;;;;;;;4.78;1.90;;;;;;;26.89;44.61;100228.70;2242269;78;21041;-76
2022/07/14 08:15:47;;;;;;;4.53;2.30;;;;;;;26.80;44.73;100242.56;2251989;78;21523;-77
2022/07/14 08:18:52;;;;;;;4.00;2.72;;;;;;;26.55;44.35;100241.99;2255456;78;20989;-77
2022/07/14 08:22:04;;;;;;;3.33;2.17;;;;;;;26.22;44.72;100237.83;2258221;78;21441;-76
2022/07/14 08:25:10;;;;;;;4.03;2.25;;;;;;;26.08;44.76;100238.33;2260543;78;21023;-79
2022/07/14 08:28:11;;;;;;;4.17;2.30;;;;;;;26.16;45.21;100238.36;2257993;78;21051;-77
2022/07/14 08:31:12;;;;;;;4.05;2.33;;;;;;;26.51;45.36;100239.55;2256978;78;22467;-79
2022/07/14 08:34:13;;;;;;;2.35;2.12;;;;;;;26.86;45.20;100228.41;2263353;78;21038;-79
2022/07/14 08:37:19;;;;;;;8.03;2.47;;;;;;;27.21;45.18;100232.52;2257593;78;20974;-80
2022/07/14 08:40:25;;;;;;;3.10;2.80;;;;;;;27.41;44.85;100227.58;2259834;78;21127;-80
2022/07/14 08:43:29;;;;;;;3.20;2.62;;;;;;;27.38;44.52;100228.68;2226559;78;21383;-79
2022/07/14 08:46:38;;;;;;;6.60;2.55;;;;;;;27.48;44.70;100227.28;2254162;77;21623;-80
2022/07/14 08:49:40;;;;;;;6.72;2.40;;;;;;;27.85;44.59;100231.02;2252942;77;20997;-80
2022/07/14 08:52:53;;;;;;;4.22;2.55;;;;;;;28.27;44.08;100227.00;2258074;77;21011;-79
2022/07/14 08:56:13;;;;;;;3.55;2.70;;;;;;;28.12;43.42;100230.61;2238583;77;21045;-79
2022/07/14 08:59:15;;;;;;;3.60;2.60;;;;;;;28.07;43.91;100222.48;2261026;78;20991;-78
2022/07/14 09:02:24;;;;;;;3.55;2.80;;;;;;;27.97;43.50;100220.34;2266025;78;21109;-79
2022/07/14 09:05:30;;;;;;;4.30;2.70;;;;;;;27.89;43.48;100214.92;2262871;77;21015;-80
2022/07/14 09:08:54;;;;;;;6.85;3.02;;;;;;;27.79;43.61;100212.19;2266209;77;21033;-69
2022/07/14 09:12:07;;;;;;;4.33;2.70;;;;;;;27.82;42.92;100202.13;2245820;77;21639;-68
2022/07/14 09:18:31;;;;;;;6.35;2.70;;;;;;;27.84;43.46;100204.84;2230172;77;20955;-79
2022/07/14 09:21:48;;;;;;;3.75;2.55;;;;;;;28.04;43.52;100206.65;2270154;77;21073;-79
2022/07/14 09:24:53;;;;;;;5.87;2.58;;;;;;;28.26;43.58;100191.81;2273091;77;21088;-77
2022/07/14 09:27:55;;;;;;;3.72;2.33;;;;;;;28.45;43.58;100193.36;2266800;78;20947;-78
2022/07/14 09:31:28;;;;;;;6.42;3.00;;;;;;;28.58;43.22;100188.07;2266948;77;21071;-78
2022/07/14 09:34:58;;;;;;;5.42;2.75;;;;;;;28.69;42.88;100182.52;2168882;81;21214;-78
2022/07/14 09:37:58;;;;;;;3.00;2.58;;;;;;;29.11;41.87;100181.07;2160205;80;21014;-79
2022/07/14 09:41:12;;;;;;;4.47;2.47;;;;;;;29.11;41.87;100181.07;2180008;81;20954;-78
2022/07/14 09:44:34;;;;;;;5.45;2.80;;;;;;;29.09;41.90;100166.88;2267270;77;21318;-78
2022/07/14 09:48:13;;;;;;;6.22;2.70;;;;;;;29.26;41.98;100183.66;2266567;77;21637;-78
2022/07/14 09:54:50;;;;;;;5.92;3.02;;;;;;;29.54;41.58;100175.67;2230099;77;21041;-78
2022/07/14 09:58:10;;;;;;;4.00;2.52;;;;;;;29.16;41.72;100177.73;2270662;77;21044;-77
2022/07/14 10:01:19;;;;;;;3.10;2.65;;;;;;;29.16;42.06;100172.27;2256637;77;21035;-78
2022/07/14 10:04:31;;;;;;;3.77;2.85;;;;;;;29.35;41.58;100169.62;2156537;78;20955;-78
2022/07/14 10:07:39;;;;;;;3.67;2.60;;;;;;;29.61;41.47;100172.05;2227833;78;21519;-78
2022/07/14 10:10:47;;;;;;;5.60;2.90;;;;;;;29.67;41.44;100168.17;2252932;78;20976;-77
2022/07/14 10:13:55;;;;;;;7.92;2.80;;;;;;;29.71;40.80;100162.39;2259455;77;21032;-82
2022/07/14 10:17:04;;;;;;;4.40;2.90;;;;;;;29.19;39.88;100157.22;2256855;78;21007;-78
2022/07/14 10:20:15;;;;;;;4.35;3.27;;;;;;;28.56;40.91;100164.89;2251302;78;20999;-76
2022/07/14 10:23:26;;;;;;;4.40;2.85;;;;;;;28.34;41.53;100142.91;2256433;78;21025;-78
2022/07/14 10:26:33;;;;;;;4.67;2.90;;;;;;;28.34;41.53;100142.91;2252386;78;20990;-79
2022/07/14 10:29:51;;;;;;;4.08;3.02;;;;;;;28.37;41.64;100166.09;2263750;77;20926;-78
2022/07/14 10:33:31;;;;;;;3.15;2.83;;;;;;;28.44;41.97;100157.59;2259797;78;21044;-80
2022/07/14 10:37:00;;;;;;;6.70;3.40;;;;;;;28.21;42.36;100163.19;2250746;78;21058;-77
2022/07/14 10:40:14;;;;;;;7.70;3.30;;;;;;;27.90;42.80;100164.73;2253387;78;21088;-78
2022/07/14 10:43:19;;;;;;;3.58;2.85;;;;;;;27.55;42.93;100169.23;2265096;78;21015;-77
2022/07/14 10:46:40;;;;;;;6.62;3.12;;;;;;;27.26;43.56;100163.06;2254151;78;21534;-77
2022/07/14 10:50:12;;;;;;;8.33;3.40;;;;;;;27.09;43.08;100162.53;2256365;78;20991;-77
2022/07/14 10:53:12;;;;;;;7.87;3.50;;;;;;;27.03;44.03;100155.44;2255701;78;21528;-78
2022/07/14 10:56:24;;;;;;;3.35;2.90;;;;;;;27.21;44.25;100155.45;2261675;78;21509;-82
2022/07/14 10:59:33;;;;;;;5.40;3.40;;;;;;;27.53;44.08;100148.80;2259177;78;21073;-77
2022/07/14 11:02:34;;;;;;;3.72;3.42;;;;;;;27.88;43.48;100136.41;2257401;78;21076;-77
2022/07/14 11:05:58;;;;;;;9.68;3.85;;;;;;;27.93;43.85;100138.27;2258560;78;21469;-77
2022/07/14 11:09:37;;;;;;;5.83;3.33;;;;;;;28.07;44.06;100141.19;2255629;78;20959;-80
2022/07/14 11:13:20;;;;;;;4.05;3.60;;;;;;;28.12;43.71;100132.98;2254060;78;21010;-78
2022/07/14 11:16:10;;;;;;;3.58;3.10;;;;;;;28.02;43.37;100134.42;2245713;78;20991;-78
2022/07/14 11:19:45;;;;;;;3.98;3.35;;;;;;;27.94;43.48;100127.09;2257361;78;20943;-77
2022/07/14 11:22:52;;;;;;;5.00;3.15;;;;;;;27.69;43.27;100121.20;2257858;78;21030;-79
2022/07/14 11:25:59;;;;;;;6.90;3.62;;;;;;;27.37;43.83;100121.63;2254397;78;21054;-77
2022/07/14 11:29:05;;;;;;;8.00;3.75;;;;;;;27.27;44.11;100121.09;2221542;78;21051;-77
2022/07/14 11:32:32;;;;;;;5.28;3.45;;;;;;;27.13;43.83;100121.94;2262986;78;21030;-77
2022/07/14 11:39:20;;;;;;;8.35;3.77;;;;;;;27.13;44.35;100119.22;2255907;78;21011;-77
2022/07/14 11:42:29;;;;;;;10.05;3.75;;;;;;;27.08;44.11;100115.95;2251005;77;21002;-77
2022/07/14 11:45:54;;;;;;;4.93;3.80;;;;;;;26.99;44.77;100114.34;2227828;78;21002;-83
2022/07/14 11:48:56;;;;;;;4.40;3.67;;;;;;;27.05;45.28;100110.50;2125832;82;20986;-81
2022/07/14 11:52:01;;;;;;;5.35;4.53;;;;;;;27.11;45.16;100108.59;2245049;78;21018;-78
2022/07/14 11:55:12;;;;;;;5.12;4.62;;;;;;;27.18;44.70;100101.53;2258110;77;21006;-78
2022/07/14 11:58:17;;;;;;;5.40;4.67;;;;;;;27.19;44.66;100098.52;2254640;77;20998;-78
2022/07/14 12:01:18;;;;;;;7.15;4.62;;;;;;;27.24;44.86;100086.80;2257273;77;21276;-77
2022/07/14 12:04:20;;;;;;;7.97;5.05;;;;;;;27.24;44.63;100082.16;2260664;78;20947;-81
2022/07/14 12:07:40;;;;;;;8.75;4.78;;;;;;;27.23;44.44;100087.36;2251613;77;20989;-79
2022/07/14 12:10:49;;;;;;;8.45;5.30;;;;;;;27.24;44.66;100087.61;2252988;77;21089;-81
2022/07/14 12:14:16;;;;;;;5.25;4.62;;;;;;;27.25;44.46;100081.06;2222596;77;21061;-79
2022/07/14 12:17:23;;;;;;;9.18;5.67;;;;;;;27.23;44.84;100075.66;2251259;77;21052;-77
2022/07/14 12:20:25;;;;;;;10.80;5.62;;;;;;;27.16;44.77;100068.31;2261655;77;21073;-76
2022/07/14 12:23:30;;;;;;;7.28;5.00;;;;;;;27.01;44.27;100071.33;2260360;77;21056;-78
2022/07/14 12:26:31;;;;;;;6.03;4.97;;;;;;;26.90;44.57;100071.63;2256766;78;21125;-76
2022/07/14 12:29:35;;;;;;;8.50;5.40;;;;;;;27.08;44.98;100073.74;2261620;78;21019;-80
2022/07/14 12:32:36;;;;;;;6.35;5.33;;;;;;;27.60;45.21;100068.39;2256647;78;21014;-78
2022/07/14 12:35:41;;;;;;;7.45;5.08;;;;;;;27.79;44.37;100065.86;2259214;78;21002;-83
2022/07/14 12:38:45;;;;;;;6.35;4.50;;;;;;;27.78;43.64;100053.28;2225817;78;21479;-79
2022/07/14 12:41:48;;;;;;;10.82;4.70;;;;;;;27.69;43.78;100055.79;2259416;78;21002;-78
2022/07/14 12:45:03;;;;;;;5.97;4.75;;;;;;;27.72;44.00;100048.41;2258414;78;21531;-76
2022/07/14 12:48:11;;;;;;;5.33;4.33;;;;;;;27.70;43.68;100045.69;2211492;78;21667;-76
2022/07/14 12:51:30;;;;;;;8.90;4.97;;;;;;;27.84;43.38;100038.54;2259501;78;21017;-76
2022/07/14 12:54:46;;;;;;;6.87;4.33;;;;;;;28.00;44.08;100035.16;2259440;78;21003;-78
2022/07/14 12:57:47;;;;;;;5.37;3.90;;;;;;;28.23;43.42;100030.07;2252965;78;21057;-77
2022/07/14 13:00:49;;;;;;;4.50;3.72;;;;;;;28.42;43.23;100026.92;2238645;78;21018;-81
2022/07/14 13:03:58;;;;;;;4.65;3.83;;;;;;;28.10;42.26;100043.27;2217722;79;20968;-77
2022/07/14 13:07:19;;;;;;;4.77;3.40;;;;;;;27.85;42.64;100042.11;2195772;79;20982;-78
2022/07/14 13:10:22;;;;;;;6.12;3.40;;;;;;;27.69;43.11;100042.16;2215173;78;21081;-77
2022/07/14 13:13:37;;;;;;;4.08;3.42;;;;;;;27.92;43.69;100039.30;2217071;78;20951;-78
2022/07/14 13:16:49;;;;;;;6.85;3.92;;;;;;;28.07;43.22;100036.19;2217428;79;21089;-79
2022/07/14 13:19:56;;;;;;;17.90;4.47;;;;;;;28.05;43.11;100027.50;2224886;79;20954;-78
2022/07/14 13:22:58;;;;;;;4.33;3.92;;;;;;;28.07;42.37;100028.02;2221142;79;20970;-78
2022/07/14 13:26:16;;;;;;;5.72;3.98;;;;;;;28.08;43.08;100031.02;2221960;79;21022;-78
2022/07/14 13:29:17;;;;;;;5.20;4.10;;;;;;;28.14;42.95;100023.86;2225586;79;20962;-79
2022/07/14 13:32:20;;;;;;;5.83;4.50;;;;;;;28.17;43.14;100022.48;2220770;78;20974;-78
2022/07/14 13:35:21;;;;;;;5.60;3.80;;;;;;;28.02;42.73;100013.89;2219297;78;20982;-77
2022/07/14 13:38:23;;;;;;;9.30;4.17;;;;;;;27.92;42.60;100015.32;2222760;79;21069;-77
2022/07/14 13:41:24;;;;;;;6.05;4.00;;;;;;;27.92;43.14;100012.59;2217807;79;20939;-77
2022/07/14 13:44:26;;;;;;;5.47;4.00;;;;;;;28.00;43.05;100014.71;2191738;79;21013;-78
2022/07/14 13:47:27;;;;;;;7.72;4.20;;;;;;;28.07;42.68;100004.83;2189000;79;21059;-78
2022/07/14 13:53:48;;;;;;;;;;;;;;;28.17;42.32;99999.30;2218688;78;21003;-76
2022/07/14 13:56:51;;;;;;;4.00;3.60;;;;;;;28.16;41.94;99999.05;2218866;78;20500;-70
2022/07/14 13:59:52;;;;;;;5.97;3.98;;;;;;;28.10;42.08;99998.80;2219054;78;20955;-70
2022/07/14 14:06:15;;;;;;;3.58;3.27;;;;;;;27.91;42.43;99998.70;2242709;77;20971;-69
2022/07/14 14:09:18;;;;;;;4.67;3.42;;;;;;;27.68;42.80;99986.03;2236610;78;20923;-77
2022/07/14 14:12:20;;;;;;;4.40;3.40;;;;;;;27.58;43.06;99977.92;2237946;78;21082;-77
2022/07/14 14:15:21;;;;;;;6.00;3.45;;;;;;;27.74;42.37;99968.28;2240496;77;21529;-78
2022/07/14 14:18:23;;;;;;;6.05;3.40;;;;;;;27.82;41.51;99952.69;2239829;78;21026;-82
2022/07/14 14:21:33;;;;;;;3.95;2.80;;;;;;;27.85;41.58;99944.77;2235256;78;20991;-77
2022/07/14 14:24:32;;;;;;;3.60;3.30;;;;;;;27.92;41.52;99941.70;2241059;78;21064;-82
2022/07/14 14:27:33;;;;;;;6.87;3.75;;;;;;;27.80;41.34;99942.64;2239940;78;21004;-78
2022/07/14 14:30:35;;;;;;;3.42;2.92;;;;;;;27.66;41.15;99944.61;2228235;78;20938;-77
2022/07/14 14:33:40;;;;;;;3.60;3.27;;;;;;;27.51;41.14;99943.38;2230605;78;21012;-77
2022/07/14 14:36:41;;;;;;;4.47;3.22;;;;;;;27.46;41.49;99937.41;2232670;78;20942;-78
2022/07/14 14:39:46;;;;;;;8.13;3.42;;;;;;;27.55;41.67;99928.08;2235388;78;21106;-77
2022/07/14 14:42:50;;;;;;;5.22;3.12;;;;;;;27.72;41.19;99941.30;2241625;78;21016;-82
2022/07/14 14:45:51;;;;;;;6.78;3.92;;;;;;;27.62;40.38;99937.28;2237299;78;21016;-76
2022/07/14 14:48:55;;;;;;;5.10;3.05;;;;;;;27.34;40.39;99934.75;2235651;78;21000;-81